createdAt,value
2022-11-27T00:09:35.620Z,101878.88
2022-11-27T00:19:39.063Z,101861.66
2022-11-27T00:29:44.024Z,101865.78
2022-11-27T00:39:48.519Z,101876.09
2022-11-27T00:49:52.991Z,101870.13
2022-11-27T00:59:56.158Z,101853.69
2022-11-27T01:10:00.720Z,101847.69
2022-11-27T01:20:03.744Z,101853.47
2022-11-27T01:30:09.745Z,101845.81
2022-11-27T01:40:13.452Z,101848.56
2022-11-27T01:50:23.451Z,101840.84
2022-11-27T02:00:27.185Z,101832.13
2022-11-27T02:10:45.629Z,101820.84
2022-11-27T02:20:55.401Z,101810.69
2022-11-27T02:31:05.430Z,101804.53
2022-11-27T02:41:13.853Z,101790.16
2022-11-27T02:51:21.842Z,101785.50
2022-11-27T03:01:28.794Z,101766.69
2022-11-27T03:11:33.561Z,101740.38
2022-11-27T03:21:40.419Z,101733.25
2022-11-27T03:31:45.392Z,101734.13
2022-11-27T03:41:55.547Z,101727.16
2022-11-27T03:52:08.930Z,101728.22
2022-11-27T04:02:13.957Z,101709.25
2022-11-27T04:12:18.243Z,101717.91
2022-11-27T04:22:21.109Z,101705.25
2022-11-27T04:32:25.498Z,101687.25
2022-11-27T04:42:28.664Z,101671.00
2022-11-27T04:52:33.032Z,101635.91
2022-11-27T05:02:36.152Z,101632.03
2022-11-27T05:12:40.625Z,101637.25
2022-11-27T05:22:44.283Z,101619.06
2022-11-27T05:32:48.653Z,101599.66
2022-11-27T05:42:51.797Z,101594.66
2022-11-27T05:52:56.127Z,101592.91
2022-11-27T06:02:59.301Z,101576.88
2022-11-27T06:13:03.738Z,101574.22
2022-11-27T06:23:06.693Z,101553.94
2022-11-27T06:33:11.090Z,101555.66
2022-11-27T06:43:13.951Z,101552.25
2022-11-27T06:53:18.604Z,101543.81
2022-11-27T07:03:22.552Z,101521.59
2022-11-27T07:13:26.898Z,101496.88
2022-11-27T07:23:29.911Z,101506.31
2022-11-27T07:33:34.322Z,101513.19
2022-11-27T07:43:38.642Z,101485.88
2022-11-27T07:53:43.628Z,101465.41
2022-11-27T08:03:47.171Z,101445.88
2022-11-27T08:13:52.285Z,101410.94
2022-11-27T08:23:55.804Z,101422.00
2022-11-27T08:34:00.239Z,101411.84
2022-11-27T08:44:06.771Z,101399.13
2022-11-27T08:54:13.778Z,101442.69
2022-11-27T09:04:16.761Z,101454.69
2022-11-27T09:14:21.095Z,101454.69
2022-11-27T09:24:25.015Z,101418.00
2022-11-27T09:34:32.292Z,101404.34
2022-11-27T09:44:45.268Z,101417.16
2022-11-27T09:54:57.095Z,101395.00
2022-11-27T10:05:17.851Z,101371.09
2022-11-27T10:15:32.990Z,101384.78
2022-11-27T10:25:40.999Z,101379.63
2022-11-27T10:35:49.051Z,101355.69
2022-11-27T10:45:58.391Z,101336.03
2022-11-27T10:56:29.003Z,101334.31
2022-11-27T11:06:35.226Z,101308.56
2022-11-27T11:16:44.302Z,101296.63
2022-11-27T11:26:50.434Z,101278.63
2022-11-27T11:37:04.552Z,101265.78
2022-11-27T11:47:07.943Z,101245.22
2022-11-27T11:57:29.026Z,101216.91
2022-11-27T12:07:51.965Z,101198.94
2022-11-27T12:18:01.713Z,101179.28
2022-11-27T12:28:22.593Z,101134.63
2022-11-27T12:38:45.414Z,101114.00
2022-11-27T12:48:54.613Z,101073.81
2022-11-27T12:59:05.886Z,101062.63
2022-11-27T13:09:14.961Z,101030.91
2022-11-27T13:19:26.220Z,101013.03
2022-11-27T13:29:33.382Z,100990.69
2022-11-27T13:39:39.981Z,100996.72
2022-11-27T13:49:43.470Z,100976.16
2022-11-27T13:59:59.294Z,100980.47
2022-11-27T14:10:10.135Z,101013.97
2022-11-27T14:20:25.511Z,101004.63
2022-11-27T14:30:36.001Z,101028.69
2022-11-27T14:40:40.163Z,101014.13
2022-11-27T14:50:43.247Z,101014.16
2022-11-27T15:00:56.568Z,101003.97
2022-11-27T15:11:01.616Z,101002.31
2022-11-27T15:21:11.616Z,100974.16
2022-11-27T15:31:30.038Z,100949.47
2022-11-27T15:41:38.344Z,100945.22
2022-11-27T15:51:44.441Z,100943.59
2022-11-27T16:01:49.486Z,100949.66
2022-11-27T16:11:52.844Z,100937.72
2022-11-27T16:21:57.834Z,100895.72
2022-11-27T16:32:01.265Z,100868.56
2022-11-27T16:42:05.942Z,100875.44
2022-11-27T16:52:11.187Z,100885.69
2022-11-27T17:02:15.743Z,100865.19
2022-11-27T17:12:19.268Z,100848.06
2022-11-27T17:22:23.920Z,100830.19
2022-11-27T17:32:26.968Z,100797.78
2022-11-27T17:42:31.432Z,100806.38
2022-11-27T17:52:34.141Z,100780.84
2022-11-27T18:02:39.117Z,100758.66
2022-11-27T18:12:42.228Z,100751.03
2022-11-27T18:22:46.713Z,100739.91
2022-11-27T18:32:49.973Z,100739.00
2022-11-27T18:42:54.200Z,100711.75
2022-11-27T18:52:58.821Z,100713.41
2022-11-27T19:03:03.284Z,100709.22
2022-11-27T19:13:06.559Z,100700.69
2022-11-27T19:23:11.686Z,100699.66
2022-11-27T19:33:15.340Z,100689.56
2022-11-27T19:43:19.844Z,100714.22
2022-11-27T19:53:23.208Z,100698.88
2022-11-27T20:03:28.022Z,100668.06
2022-11-27T20:13:31.585Z,100656.81
2022-11-27T20:23:35.970Z,100651.75
2022-11-27T20:33:39.714Z,100623.50
2022-11-27T20:43:44.272Z,100620.84
2022-11-27T20:53:49.691Z,100606.28
2022-11-27T21:03:55.195Z,100608.59
2022-11-27T21:14:02.721Z,100630.78
2022-11-27T21:24:08.335Z,100647.84
2022-11-27T21:34:13.618Z,100622.38
2022-11-27T21:44:18.833Z,100614.75
2022-11-27T21:54:22.937Z,100589.13
2022-11-27T22:04:27.785Z,100577.16
2022-11-27T22:14:31.282Z,100558.31
2022-11-27T22:24:36.328Z,100542.19
2022-11-27T22:34:41.177Z,100530.09
2022-11-27T22:44:46.375Z,100535.88
2022-11-27T22:54:49.380Z,100526.59
2022-11-27T23:04:53.969Z,100505.94
2022-11-27T23:14:57.160Z,100513.66
2022-11-27T23:25:01.810Z,100498.25
2022-11-27T23:35:04.917Z,100460.84
2022-11-27T23:45:10.531Z,100460.28
2022-11-27T23:55:13.614Z,100464.66
